createdAt,value
2023-02-07T00:00:57.596Z,-8.90
2023-02-07T00:06:12.133Z,-9.11
2023-02-07T00:11:17.534Z,-9.01
2023-02-07T00:16:21.696Z,-8.84
2023-02-07T00:21:26.082Z,-8.85
2023-02-07T00:26:29.396Z,-8.97
2023-02-07T00:31:34.637Z,-9.03
2023-02-07T00:36:40.224Z,-8.90
2023-02-07T00:41:44.232Z,-8.96
2023-02-07T00:46:47.417Z,-8.87
2023-02-07T00:51:50.556Z,-8.75
2023-02-07T00:56:53.566Z,-8.72
2023-02-07T01:02:00.028Z,-8.82
2023-02-07T01:07:03.382Z,-8.93
2023-02-07T01:12:06.558Z,-8.91
2023-02-07T01:17:09.607Z,-8.87
2023-02-07T01:22:12.650Z,-8.75
2023-02-07T01:27:15.779Z,-8.80
2023-02-07T01:32:18.856Z,-8.89
2023-02-07T01:37:21.913Z,-8.98
2023-02-07T01:42:27.458Z,-9.05
2023-02-07T01:47:32.232Z,-8.95
2023-02-07T01:52:40.012Z,-9.14
2023-02-07T01:57:45.437Z,-9.30
2023-02-07T02:02:48.514Z,-9.26
2023-02-07T02:07:52.798Z,-9.06
2023-02-07T02:13:15.081Z,-9.22
2023-02-07T02:18:23.880Z,-9.26
2023-02-07T02:23:57.853Z,-9.12
2023-02-07T02:29:18.989Z,-9.36
2023-02-07T02:34:33.104Z,-9.27
2023-02-07T02:39:54.509Z,-9.38
2023-02-07T02:45:37.183Z,-9.45
2023-02-07T02:50:45.696Z,-9.42
2023-02-07T02:56:06.196Z,-9.63
2023-02-07T03:01:20.356Z,-9.53
2023-02-07T03:06:43.722Z,-9.56
2023-02-07T03:12:05.080Z,-9.62
2023-02-07T03:17:34.323Z,-9.64
2023-02-07T03:22:42.187Z,-9.43
2023-02-07T03:27:47.233Z,-9.68
2023-02-07T03:32:56.831Z,-9.60
2023-02-07T03:38:02.465Z,-9.53
2023-02-07T03:43:08.417Z,-9.38
2023-02-07T03:48:11.561Z,-9.49
2023-02-07T03:53:14.686Z,-9.28
2023-02-07T03:58:17.801Z,-9.58
2023-02-07T04:03:20.846Z,-9.46
2023-02-07T04:08:24.190Z,-9.45
2023-02-07T04:13:27.761Z,-9.10
2023-02-07T04:18:31.247Z,-8.97
2023-02-07T04:23:35.410Z,-9.10
2023-02-07T04:28:38.580Z,-9.13
2023-02-07T04:33:41.601Z,-8.99
2023-02-07T04:38:45.111Z,-8.99
2023-02-07T04:43:48.122Z,-8.87
2023-02-07T04:48:51.328Z,-8.91
2023-02-07T04:53:56.894Z,-8.68
2023-02-07T04:58:59.880Z,-8.91
2023-02-07T05:04:03.075Z,-8.91
2023-02-07T05:09:06.498Z,-8.88
2023-02-07T05:14:09.628Z,-9.20
2023-02-07T05:19:13.089Z,-9.37
2023-02-07T05:24:16.212Z,-9.41
2023-02-07T05:29:19.459Z,-9.25
2023-02-07T05:34:23.868Z,-8.87
2023-02-07T05:39:27.005Z,-8.88
2023-02-07T05:44:30.148Z,-9.00
2023-02-07T05:49:33.119Z,-8.99
2023-02-07T05:54:36.269Z,-8.94
2023-02-07T05:59:39.309Z,-8.91
2023-02-07T06:04:42.389Z,-8.93
2023-02-07T06:09:45.418Z,-8.76
2023-02-07T06:14:48.485Z,-8.76
2023-02-07T06:19:53.627Z,-8.90
2023-02-07T06:24:56.819Z,-8.41
2023-02-07T06:29:59.926Z,-7.99
2023-02-07T06:35:03.268Z,-7.61
2023-02-07T06:40:06.845Z,-7.24
2023-02-07T06:45:10.384Z,-7.15
2023-02-07T06:50:13.598Z,-6.99
2023-02-07T06:55:16.782Z,-6.84
2023-02-07T07:00:21.092Z,-6.73
2023-02-07T07:05:24.372Z,-6.57
2023-02-07T07:10:27.771Z,-6.35
2023-02-07T07:15:30.909Z,-6.10
2023-02-07T07:20:34.007Z,-6.12
2023-02-07T07:25:37.378Z,-6.00
2023-02-07T07:30:40.796Z,-6.07
2023-02-07T07:35:43.922Z,-5.92
2023-02-07T07:40:46.921Z,-5.97
2023-02-07T07:45:57.777Z,-5.55
2023-02-07T07:51:00.978Z,-5.57
2023-02-07T07:56:04.469Z,-5.41
2023-02-07T08:01:07.676Z,-5.63
2023-02-07T08:06:11.117Z,-5.53
2023-02-07T08:11:14.455Z,-5.35
2023-02-07T08:16:19.214Z,-5.15
2023-02-07T08:21:22.746Z,-4.72
2023-02-07T08:26:26.119Z,-4.44
2023-02-07T08:31:29.318Z,-4.62
2023-02-07T08:36:32.441Z,-4.60
2023-02-07T08:41:35.748Z,-4.44
2023-02-07T08:46:38.825Z,-4.71
2023-02-07T08:51:43.039Z,-4.79
2023-02-07T08:56:46.152Z,-4.64
2023-02-07T09:01:49.241Z,-4.55
2023-02-07T09:06:52.390Z,-4.50
2023-02-07T09:11:55.506Z,-4.41
2023-02-07T09:16:58.619Z,-4.37
2023-02-07T09:22:01.692Z,-4.25
2023-02-07T09:27:04.726Z,-4.44
2023-02-07T09:32:07.891Z,-4.26
2023-02-07T09:37:11.651Z,-4.23
2023-02-07T09:42:34.258Z,-4.08
2023-02-07T09:47:41.872Z,-4.00
2023-02-07T09:52:59.319Z,-3.91
2023-02-07T09:58:42.872Z,-3.78
2023-02-07T10:04:18.170Z,-3.86
2023-02-07T10:09:33.946Z,-3.80
2023-02-07T10:15:02.031Z,-3.76
2023-02-07T10:20:50.718Z,-3.76
2023-02-07T10:26:02.654Z,-3.80
2023-02-07T10:31:14.065Z,-3.68
2023-02-07T10:36:18.864Z,-3.78
2023-02-07T10:41:34.784Z,-3.80
2023-02-07T10:46:41.117Z,-3.95
2023-02-07T10:51:46.178Z,-3.81
2023-02-07T10:56:52.835Z,-3.97
2023-02-07T11:01:57.449Z,-3.91
2023-02-07T11:07:02.785Z,-4.05
2023-02-07T11:12:23.640Z,-4.01
2023-02-07T11:17:26.941Z,-3.98
2023-02-07T11:22:30.113Z,-3.58
2023-02-07T11:27:42.774Z,-3.51
2023-02-07T11:33:03.163Z,-3.54
2023-02-07T11:38:15.882Z,-3.19
2023-02-07T11:43:23.226Z,-3.16
2023-02-07T11:48:28.475Z,-3.33
2023-02-07T11:53:37.654Z,-3.09
2023-02-07T11:58:47.745Z,-3.31
2023-02-07T12:04:01.211Z,-3.32
2023-02-07T12:09:10.535Z,-3.27
2023-02-07T12:14:27.779Z,-3.43
2023-02-07T12:19:36.258Z,-3.45
2023-02-07T12:24:57.081Z,-3.52
2023-02-07T12:30:18.253Z,-3.54
2023-02-07T12:35:39.264Z,-3.74
2023-02-07T12:40:59.961Z,-3.62
2023-02-07T12:46:23.198Z,-3.59
2023-02-07T12:51:44.209Z,-3.57
2023-02-07T12:56:57.606Z,-3.56
2023-02-07T13:02:19.188Z,-3.80
2023-02-07T13:07:37.165Z,-3.82
2023-02-07T13:12:58.759Z,-3.95
2023-02-07T13:18:12.089Z,-4.12
2023-02-07T13:23:26.773Z,-4.15
2023-02-07T13:28:46.099Z,-4.39
2023-02-07T13:33:51.057Z,-4.39
2023-02-07T13:39:14.595Z,-4.56
2023-02-07T13:44:35.184Z,-4.66
2023-02-07T13:50:21.558Z,-4.64
2023-02-07T13:55:32.719Z,-4.63
2023-02-07T14:00:56.433Z,-4.74
2023-02-07T14:06:26.787Z,-4.90
2023-02-07T14:11:44.397Z,-4.98
2023-02-07T14:16:58.656Z,-5.39
2023-02-07T14:22:28.046Z,-5.23
2023-02-07T14:27:35.256Z,-5.36
2023-02-07T14:32:40.955Z,-5.41
2023-02-07T14:37:54.455Z,-5.73
2023-02-07T14:43:35.243Z,-5.75
2023-02-07T14:48:49.132Z,-5.87
2023-02-07T14:54:13.972Z,-6.03
2023-02-07T14:59:29.170Z,-6.12
2023-02-07T15:04:36.430Z,-6.14
2023-02-07T15:09:39.479Z,-6.35
2023-02-07T15:14:42.591Z,-6.36
2023-02-07T15:19:45.650Z,-6.40
2023-02-07T15:24:51.861Z,-6.66
2023-02-07T15:30:01.240Z,-6.75
2023-02-07T15:35:18.912Z,-6.82
2023-02-07T15:40:26.663Z,-6.77
2023-02-07T15:45:32.615Z,-6.98
2023-02-07T15:50:37.399Z,-6.98
2023-02-07T15:55:46.271Z,-7.10
2023-02-07T16:00:53.565Z,-7.15
2023-02-07T16:06:09.896Z,-7.09
2023-02-07T16:11:38.108Z,-7.25
2023-02-07T16:16:52.654Z,-7.38
2023-02-07T16:22:12.569Z,-7.31
2023-02-07T16:27:21.107Z,-7.41
2023-02-07T16:32:28.171Z,-7.58
2023-02-07T16:37:31.149Z,-7.56
2023-02-07T16:42:34.232Z,-7.60
2023-02-07T16:47:37.288Z,-7.60
2023-02-07T16:52:40.309Z,-7.82
2023-02-07T16:57:44.871Z,-7.82
2023-02-07T17:02:50.640Z,-8.00
2023-02-07T17:07:53.699Z,-8.03
2023-02-07T17:12:57.051Z,-8.13
2023-02-07T17:18:00.203Z,-8.30
2023-02-07T17:23:03.300Z,-8.31
2023-02-07T17:28:06.494Z,-8.31
2023-02-07T17:33:10.950Z,-8.57
2023-02-07T17:38:14.066Z,-8.56
2023-02-07T17:43:17.118Z,-8.52
2023-02-07T17:48:20.125Z,-8.57
2023-02-07T17:53:23.571Z,-8.62
2023-02-07T17:58:26.694Z,-8.67
2023-02-07T18:03:29.704Z,-8.81
2023-02-07T18:08:32.729Z,-8.89
2023-02-07T18:13:35.842Z,-8.87
2023-02-07T18:18:40.230Z,-8.96
2023-02-07T18:23:43.398Z,-9.04
2023-02-07T18:28:46.973Z,-8.96
2023-02-07T18:33:51.452Z,-8.99
2023-02-07T18:38:54.520Z,-9.03
2023-02-07T18:43:57.552Z,-9.10
2023-02-07T18:49:00.759Z,-9.04
2023-02-07T18:54:03.923Z,-9.19
2023-02-07T18:59:07.202Z,-9.20
2023-02-07T19:04:10.224Z,-9.22
2023-02-07T19:09:14.133Z,-9.24
2023-02-07T19:14:26.786Z,-9.37
2023-02-07T19:19:31.383Z,-9.44
2023-02-07T19:24:34.391Z,-9.55
2023-02-07T19:29:37.538Z,-9.75
2023-02-07T19:34:40.572Z,-9.60
2023-02-07T19:39:46.433Z,-9.60
2023-02-07T19:44:49.971Z,-9.71
2023-02-07T19:49:53.078Z,-9.72
2023-02-07T19:54:56.790Z,-9.64
2023-02-07T19:59:59.860Z,-9.75
2023-02-07T20:05:02.855Z,-9.99
2023-02-07T20:10:07.218Z,-9.78
2023-02-07T20:15:11.094Z,-9.79
2023-02-07T20:20:15.406Z,-9.88
2023-02-07T20:25:18.454Z,-9.92
2023-02-07T20:30:21.544Z,-10.11
2023-02-07T20:35:24.875Z,-9.98
2023-02-07T20:40:27.958Z,-10.19
2023-02-07T20:45:31.011Z,-10.09
2023-02-07T20:50:35.231Z,-10.25
2023-02-07T20:55:38.223Z,-10.05
2023-02-07T21:00:41.618Z,-10.17
2023-02-07T21:05:44.840Z,-10.11
2023-02-07T21:10:48.000Z,-10.22
2023-02-07T21:16:02.528Z,-10.15
2023-02-07T21:21:08.178Z,-10.31
2023-02-07T21:26:13.941Z,-10.29
2023-02-07T21:31:20.252Z,-10.23
2023-02-07T21:36:29.152Z,-10.23
2023-02-07T21:41:32.376Z,-10.40
2023-02-07T21:46:39.692Z,-10.48
2023-02-07T21:51:45.588Z,-10.32
2023-02-07T21:56:50.367Z,-10.36
2023-02-07T22:01:54.570Z,-10.63
2023-02-07T22:06:57.840Z,-10.37
2023-02-07T22:12:00.848Z,-10.56
2023-02-07T22:17:03.894Z,-10.39
2023-02-07T22:22:06.880Z,-10.41
2023-02-07T22:27:09.855Z,-10.36
2023-02-07T22:32:12.965Z,-10.34
2023-02-07T22:37:15.932Z,-10.51
2023-02-07T22:42:19.016Z,-10.71
2023-02-07T22:47:22.084Z,-10.53
2023-02-07T22:52:25.114Z,-10.49
2023-02-07T22:57:28.247Z,-10.58
2023-02-07T23:02:31.332Z,-10.81
2023-02-07T23:07:35.268Z,-10.70
2023-02-07T23:12:39.571Z,-10.86
2023-02-07T23:17:42.593Z,-10.64
2023-02-07T23:22:45.706Z,-10.61
2023-02-07T23:27:48.905Z,-10.72
2023-02-07T23:32:51.938Z,-10.83
2023-02-07T23:37:54.982Z,-10.70
2023-02-07T23:42:58.039Z,-10.92
2023-02-07T23:48:02.654Z,-10.88
2023-02-07T23:53:05.770Z,-10.88
2023-02-07T23:58:08.883Z,-10.89
